Pagrindinis puslapis
METAR-TAF:

METAR-TAF

Oro uostai :

Panama Pacifico, Panama

platuma: 08-55N, ilguma: 079-36W, Aukštis: 16 m

Dabartinis oras

Ataskaita buvo paskelbta 1 valandą ir 9 minutes, ne 12:00 UTC
Vėjas 8 kt iš Šiaurės/Šiaurės Rytų
Temperatūra 25°C
Drėgmė 89%
Slėgis 1013 hPa
Matomumas 10 km arba daugiau
Mažai debesys ne aukštis 2000 ft

METAR: MPPA 281200Z 02008KT 9999 FEW020 25/23 Q1013

Laikas: 08:09 (13:09 UTC)

Prognozė

Ataskaita buvo paskelbta 2 valandos ir 9 minutes, ne 11:00 UTC
Prognozė galioja nuo 28 metu 12 UTC su 29 metu 18 UTC
Vėjas 8 kt iš Šiaurės/Šiaurės Rytų
Matomumas 10 km arba daugiau
Išsisklaidę debesys ne aukštis 1800 ft
Laikinai
nuo 28 metu 18 UTC su 28 metu 20 UTC
Vėjas 18 kt iš Šiaurės
Tapsmas
nuo 29 metu 06 UTC su 29 metu 10 UTC
Vėjas kt iš Šiaurės
Matomumas 10 km arba daugiau
nėra debesų žemiau 1500 m ir nėra kamuolinių lietaus debesų

TAF: MPPA 281100Z 2812/2918 03008KT 9999 SCT018 TEMPO 2818/2820 01018KT BECMG 2906/2910 00000KT CAVOK

Orai ataskaitas ir orų prognozės (METAR, TAF).

turimą stotys yra geltonos ir raudonos taškus žemėlapyje.

Perkelti pele per norėdami pamatyti stoties vardą.

Tada spustelėkite, norėdami matyti oro stebėjimo ir prognozės.

Norėdami pakeisti žemėlapį: spustelėkite ant žalios mygtukų su juodo kryžiaus žemyn,; žalią mygtuką su brūkšneliu, jei norite nutolinti; arba žalių rodyklių gretimoms žemėlapius.


METAR-TAF: